General Electric PE Ratio 2006-2021 | GE

Current and historical p/e ratio for General Electric (GE) from 2006 to 2021. The price to earnings ratio is calculated by taking the latest closing price and dividing it by the most recent earnings per share (EPS) number. The PE ratio is a simple way to assess whether a stock is over or under valued and is the most widely used valuation measure. General Electric PE ratio as of January 27, 2022 is 42.21.

Please refer to the Stock Price Adjustment Guide for more information on our historical prices.

General Electric PE Ratio Historical Data
Date Stock Price TTM Net EPS PE Ratio
2022-01-28 92.10 0.00
2021-09-30 102.94 $-0.52 0.00
2021-06-30 107.50 $-2.72 0.00
2021-03-31 104.79 $-3.68 0.00
2020-12-31 86.13 $4.56 18.89
2020-09-30 49.64 $2.88 17.24
2020-06-30 54.33 $-4.64 0.00
2020-03-31 63.06 $-2.64 0.00
2019-12-31 88.54 $-4.96 0.00
2019-09-30 70.86 $-4.88 0.00
2019-06-30 83.14 $-17.20 0.00
2019-03-31 79.03 $-16.56 0.00
2018-12-31 57.69 $-20.96 0.00
2018-09-30 85.93 $-30.56 0.00
2018-06-30 102.61 $-7.92 0.00
2018-03-31 100.72 $-7.44 0.00
2017-12-31 129.32 $-5.76 0.00
2017-09-30 177.97 $6.40 27.81
2017-06-30 196.82 $6.48 30.37
2017-03-31 215.37 $7.84 27.47
2016-12-31 226.56 $7.20 31.47
2016-09-30 210.78 $9.20 22.91
2016-06-30 222.30 $9.44 23.55
2016-03-31 222.81 $6.00 37.14
2015-12-31 216.62 $-4.72 0.00
2015-09-30 174.07 $-5.76 0.00
2015-06-30 181.74 $-4.96 0.00
2015-03-31 168.29 $-1.12 0.00
2014-12-31 169.85 $12.08 14.06
2014-09-30 170.64 $11.28 15.13
2014-06-30 173.58 $10.96 15.84
2014-03-31 169.62 $10.56 16.06
2013-12-31 182.04 $10.88 16.73
2013-09-30 153.92 $10.64 14.47
2013-06-30 148.25 $10.80 13.73
2013-03-31 146.61 $10.72 13.68
2012-12-31 132.02 $10.32 12.79
2012-09-30 141.56 $10.08 14.04
2012-06-30 128.93 $9.20 14.01
2012-03-31 123.09 $9.68 12.72
2011-12-31 108.89 $9.92 10.98
2011-09-30 91.67 $10.48 8.75
2011-06-30 112.54 $10.16 11.08
2011-03-31 118.68 $9.60 12.36
2010-12-31 107.53 $8.40 12.80
2010-09-30 94.80 $7.28 13.02
2010-06-30 83.51 $7.68 10.87
2010-03-31 104.74 $7.36 14.23
2009-12-31 86.53 $8.08 10.71
2009-09-30 93.30 $8.64 10.80
2009-06-30 66.20 $10.24 6.46
2009-03-31 56.63 $12.40 4.57
2008-12-31 88.03 $13.76 6.40
2008-09-30 135.95 $16.24 8.37
2008-06-30 140.54 $17.12 8.21
2008-03-31 192.74 $17.28 11.15
2007-12-31 191.29 $17.36 11.02
2007-09-30 211.84 $17.20 12.32
2007-06-30 194.55 $16.72 11.64
2007-03-31 178.42 $16.24 10.99
2006-12-31 186.29 $16.00 11.64
Sector Industry Market Cap Revenue
Multi-Sector Conglomerates Diversified Operations $98.723B $74.196B
General Electric is a high-tech industrial company that operates worldwide through its four industrial segments, Power, Renewable Energy, Aviation and Healthcare, and its financial services segment, Capital. The Power segment offers services energy production services. The Renewable Energy segment provides wind turbine platforms, hardware and software, offshore wind turbines, products and services to hydropower industry, blades for wind turbines, and high voltage equipment. The Aviation segment provides jet engines and turboprops for commercial airframes, maintenance, component repair, and overhaul services. The Healthcare segment provides healthcare technologies in medical imaging, digital solutions, drug discovery, biopharmaceutical manufacturing technologies and performance enhancement solutions. The Capital segment leases and finances aircraft, aircraft engines and helicopters, and provides financial solutions. GE is headquartered in Boston, MA.
Stock Name Country Market Cap PE Ratio
Danaher (DHR) United States $192.914B 26.84
3M (MMM) United States $98.461B 16.81
Carlisle (CSL) United States $11.267B 26.60
ITT (ITT) United States $7.716B 22.53
Crane (CR) United States $5.826B 14.96
Federal Signal (FSS) United States $2.322B 21.12
Griffon (GFF) United States $1.222B 12.06
Lsb Industries (LXU) United States $0.835B 0.00
Steel Partners Holdings LP (SPLP) United States $0.715B 5.91
National Presto Industries (NPK) United States $0.574B 15.80
Macquarie Infrastructure Holdi (MIC) United States $0.317B 0.00
INNOVATE (VATE) United States $0.289B 0.00